Olena, Ohio
Current Conditions -  °F | °C
As of 3:53 AM on Thursday 23 Oct 2014 (Local Time) from KLPR Reporting Station
Clear Clear  
Wind Chill: 39°   Ceiling: Unl
Heat Index: 43°   Visibility: 10mi
Dew Point: 42°   Wind: 7mph
Humidity: 97%   Direction: 310°NW
Pressure: 30.22"   Gusts: NA
Location:  41.2186°N, 82.5851°W
Report Text: KLPR 230753Z AUTO 31006KT 10SM CLR 06/06 A3022 RMK AO2 SLP235 T00610056 TSNO
Loading
Personal Weather Stations






























Interactive Weather Map
Tropical Storm Tracking
New forecast layout! Learn more

10-Day Weather Forecast

Advertisements
Track Severe Weather on mobile